createdAt,value
2022-12-25T00:01:28.225Z,19.60
2022-12-25T00:03:56.846Z,13.38
2022-12-25T00:06:23.471Z,14.25
2022-12-25T00:08:49.835Z,12.98
2022-12-25T00:13:45.188Z,14.35
2022-12-25T00:16:19.093Z,14.95
2022-12-25T00:18:46.166Z,14.57
2022-12-25T00:21:13.806Z,14.60
2022-12-25T00:23:40.358Z,15.38
2022-12-25T00:26:09.364Z,16.50
2022-12-25T00:28:35.952Z,13.65
2022-12-25T00:31:06.963Z,13.15
2022-12-25T00:33:35.762Z,12.32
2022-12-25T00:36:02.877Z,12.77
2022-12-25T00:38:29.400Z,12.60
2022-12-25T00:40:55.789Z,13.07
2022-12-25T00:43:22.753Z,13.45
2022-12-25T00:46:03.108Z,12.60
2022-12-25T00:48:30.206Z,13.32
2022-12-25T00:50:59.390Z,12.43
2022-12-25T00:53:26.705Z,12.38
2022-12-25T00:56:05.200Z,12.15
2022-12-25T00:58:33.481Z,10.75
2022-12-25T01:01:00.062Z,11.95
2022-12-25T01:03:26.969Z,12.60
2022-12-25T01:05:58.572Z,11.77
2022-12-25T01:08:25.927Z,12.15
2022-12-25T01:11:01.325Z,11.60
2022-12-25T01:13:29.735Z,11.35
2022-12-25T01:15:56.292Z,10.48
2022-12-25T01:18:24.520Z,11.00
2022-12-25T01:20:51.469Z,10.23
2022-12-25T01:23:17.807Z,10.52
2022-12-25T01:28:10.557Z,9.30
2022-12-25T01:30:37.041Z,10.00
2022-12-25T01:33:03.624Z,9.90
2022-12-25T01:35:30.157Z,10.30
2022-12-25T01:37:56.672Z,10.20
2022-12-25T01:40:23.057Z,9.70
2022-12-25T01:42:49.480Z,9.20
2022-12-25T01:45:32.554Z,9.68
2022-12-25T01:48:00.594Z,8.75
2022-12-25T01:50:28.371Z,8.77
2022-12-25T01:52:56.294Z,8.23
2022-12-25T01:55:23.484Z,8.68
2022-12-25T01:57:50.114Z,8.68
2022-12-25T02:00:16.859Z,7.90
2022-12-25T02:02:44.594Z,8.13
2022-12-25T02:05:22.267Z,8.45
2022-12-25T02:07:49.610Z,8.25
2022-12-25T02:10:16.986Z,9.00
2022-12-25T02:12:45.063Z,7.95
2022-12-25T02:15:16.850Z,9.32
2022-12-25T02:18:15.264Z,9.85
2022-12-25T02:20:50.497Z,8.68
2022-12-25T02:23:55.246Z,9.45
2022-12-25T02:26:55.304Z,9.13
2022-12-25T02:29:31.416Z,7.22
2022-12-25T02:32:16.416Z,10.25
2022-12-25T02:34:57.149Z,9.55
2022-12-25T02:37:30.140Z,9.23
2022-12-25T02:40:08.410Z,8.32
2022-12-25T02:45:07.553Z,8.88
2022-12-25T02:47:36.298Z,8.88
2022-12-25T02:50:04.890Z,8.43
2022-12-25T02:52:31.781Z,8.32
2022-12-25T02:55:03.973Z,7.78
2022-12-25T02:57:35.111Z,8.13
2022-12-25T03:00:03.799Z,7.47
2022-12-25T03:02:33.580Z,8.45
2022-12-25T03:05:02.914Z,7.47
2022-12-25T03:07:30.039Z,7.63
2022-12-25T03:10:03.299Z,7.68
2022-12-25T03:12:42.357Z,7.72
2022-12-25T03:15:10.759Z,7.88
2022-12-25T03:17:37.570Z,8.25
2022-12-25T03:20:05.551Z,7.88
2022-12-25T03:22:32.619Z,7.50
2022-12-25T03:24:59.030Z,7.13
2022-12-25T03:27:26.813Z,7.57
2022-12-25T03:29:53.264Z,7.28
2022-12-25T03:32:26.600Z,7.93
2022-12-25T03:34:58.868Z,8.30
2022-12-25T03:39:57.740Z,8.35
2022-12-25T03:42:43.480Z,8.82
2022-12-25T03:45:21.869Z,8.13
2022-12-25T03:47:51.810Z,8.63
2022-12-25T03:50:57.838Z,9.13
2022-12-25T03:53:37.854Z,8.75
2022-12-25T03:56:05.463Z,8.20
2022-12-25T03:58:31.841Z,8.85
2022-12-25T04:00:58.451Z,7.78
2022-12-25T04:03:24.978Z,8.57
2022-12-25T04:05:51.480Z,9.10
2022-12-25T04:08:17.898Z,9.38
2022-12-25T04:10:44.246Z,8.63
2022-12-25T04:13:11.224Z,8.75
2022-12-25T04:15:37.664Z,8.43
2022-12-25T04:18:04.425Z,8.57
2022-12-25T04:20:30.833Z,8.38
2022-12-25T04:22:57.283Z,9.35
2022-12-25T04:25:23.671Z,8.05
2022-12-25T04:27:50.113Z,9.35
2022-12-25T04:30:16.524Z,9.13
2022-12-25T04:32:42.882Z,9.40
2022-12-25T04:35:09.615Z,9.18
2022-12-25T04:37:36.040Z,9.07
2022-12-25T04:40:02.399Z,9.18
2022-12-25T04:42:28.847Z,9.00
2022-12-25T04:44:55.226Z,8.85
2022-12-25T04:47:21.610Z,9.07
2022-12-25T04:49:47.974Z,8.80
2022-12-25T04:52:14.635Z,9.05
2022-12-25T04:54:41.225Z,9.02
2022-12-25T04:57:07.620Z,8.30
2022-12-25T04:59:34.019Z,8.43
2022-12-25T05:02:00.587Z,8.45
2022-12-25T05:04:27.239Z,9.73
2022-12-25T05:06:53.570Z,8.95
2022-12-25T05:09:20.055Z,8.68
2022-12-25T05:11:46.410Z,8.57
2022-12-25T05:14:12.837Z,8.52
2022-12-25T05:16:39.521Z,7.43
2022-12-25T05:19:06.098Z,8.20
2022-12-25T05:21:32.668Z,7.55
2022-12-25T05:23:59.431Z,8.13
2022-12-25T05:26:26.666Z,8.48
2022-12-25T05:28:53.927Z,8.15
2022-12-25T05:31:20.583Z,8.13
2022-12-25T05:33:49.995Z,8.63
2022-12-25T05:36:16.382Z,8.55
2022-12-25T05:38:42.749Z,8.48
2022-12-25T05:41:09.205Z,8.57
2022-12-25T05:43:35.724Z,8.80
2022-12-25T05:46:09.581Z,8.45
2022-12-25T05:48:37.410Z,8.25
2022-12-25T05:51:08.397Z,8.07
2022-12-25T05:53:35.725Z,9.18
2022-12-25T05:56:03.826Z,8.45
2022-12-25T05:58:31.117Z,7.82
2022-12-25T06:00:57.899Z,7.65
2022-12-25T06:03:24.997Z,7.95
2022-12-25T06:05:51.670Z,8.20
2022-12-25T06:08:18.106Z,8.38
2022-12-25T06:10:44.480Z,8.00
2022-12-25T06:13:10.835Z,8.15
2022-12-25T06:15:41.328Z,8.23
2022-12-25T06:18:08.243Z,8.05
2022-12-25T06:20:34.608Z,7.55
2022-12-25T06:23:01.667Z,8.68
2022-12-25T06:25:28.218Z,8.35
2022-12-25T06:27:54.855Z,8.02
2022-12-25T06:30:21.236Z,7.65
2022-12-25T06:32:47.615Z,8.55
2022-12-25T06:35:14.076Z,8.52
2022-12-25T06:37:40.425Z,9.10
2022-12-25T06:40:07.528Z,8.38
2022-12-25T06:42:33.969Z,7.95
2022-12-25T06:45:00.388Z,8.60
2022-12-25T06:47:26.751Z,7.90
2022-12-25T06:49:53.119Z,7.95
2022-12-25T06:52:19.530Z,8.13
2022-12-25T06:54:47.163Z,8.63
2022-12-25T06:57:13.524Z,7.93
2022-12-25T06:59:40.027Z,8.40
2022-12-25T07:02:20.323Z,7.72
2022-12-25T07:04:48.118Z,7.72
2022-12-25T07:07:14.985Z,7.90
2022-12-25T07:09:41.466Z,7.10
2022-12-25T07:12:18.286Z,7.57
2022-12-25T07:14:45.573Z,7.22
2022-12-25T07:17:11.935Z,6.97
2022-12-25T07:19:44.482Z,7.65
2022-12-25T07:22:11.237Z,6.55
2022-12-25T07:24:37.633Z,7.15
2022-12-25T07:27:04.135Z,7.15
2022-12-25T07:29:30.552Z,6.65
2022-12-25T07:31:57.143Z,6.35
2022-12-25T07:34:23.559Z,7.13
2022-12-25T07:36:50.083Z,6.47
2022-12-25T07:39:16.507Z,5.68
2022-12-25T07:41:43.673Z,6.13
2022-12-25T07:44:10.022Z,6.22
2022-12-25T07:46:36.414Z,6.38
2022-12-25T07:49:02.773Z,6.28
2022-12-25T07:51:29.153Z,6.25
2022-12-25T07:53:56.283Z,6.25
2022-12-25T07:56:22.911Z,6.30
2022-12-25T07:58:49.712Z,6.32
2022-12-25T08:01:21.792Z,6.50
2022-12-25T08:06:20.258Z,6.82
2022-12-25T08:08:47.143Z,6.00
2022-12-25T08:11:13.913Z,6.35
2022-12-25T08:13:41.011Z,5.68
2022-12-25T08:16:10.180Z,6.40
2022-12-25T08:18:38.164Z,5.97
2022-12-25T08:21:10.642Z,5.82
2022-12-25T08:23:39.751Z,5.68
2022-12-25T08:26:07.574Z,6.15
2022-12-25T08:28:34.636Z,6.00
2022-12-25T08:31:16.068Z,6.15
2022-12-25T08:33:43.473Z,5.85
2022-12-25T08:36:11.347Z,6.20
2022-12-25T08:38:38.118Z,5.18
2022-12-25T08:41:04.914Z,5.10
2022-12-25T08:43:31.423Z,5.05
2022-12-25T08:45:57.852Z,5.97
2022-12-25T08:48:24.579Z,5.80
2022-12-25T08:50:52.643Z,5.82
2022-12-25T08:53:19.599Z,5.68
2022-12-25T08:55:46.359Z,5.97
2022-12-25T08:58:13.534Z,5.28
2022-12-25T09:00:40.785Z,5.43
2022-12-25T09:03:07.199Z,5.97
2022-12-25T09:05:37.473Z,4.95
2022-12-25T09:08:04.231Z,5.07
2022-12-25T09:10:30.843Z,5.20
2022-12-25T09:12:57.400Z,5.40
2022-12-25T09:15:23.872Z,5.32
2022-12-25T09:17:50.261Z,5.45
2022-12-25T09:20:16.630Z,5.45
2022-12-25T09:22:43.022Z,5.22
2022-12-25T09:25:09.769Z,5.28
2022-12-25T09:27:36.312Z,5.30
2022-12-25T09:30:03.257Z,6.53
2022-12-25T09:32:29.606Z,5.85
2022-12-25T09:34:55.991Z,6.13
2022-12-25T09:37:22.540Z,6.50
2022-12-25T09:39:48.954Z,5.80
2022-12-25T09:42:20.566Z,5.90
2022-12-25T09:44:53.443Z,5.45
2022-12-25T09:47:24.748Z,6.03
2022-12-25T09:50:02.773Z,6.50
2022-12-25T09:52:43.875Z,5.35
2022-12-25T09:55:14.735Z,5.85
2022-12-25T09:57:45.663Z,5.90
2022-12-25T10:00:18.043Z,5.60
2022-12-25T10:03:03.371Z,5.68
2022-12-25T10:05:41.921Z,6.00
2022-12-25T10:08:45.836Z,6.45
2022-12-25T10:11:43.412Z,5.80
2022-12-25T10:14:30.426Z,6.10
2022-12-25T10:17:18.575Z,5.55
2022-12-25T10:20:13.954Z,5.35
2022-12-25T10:22:44.253Z,5.25
2022-12-25T10:25:22.921Z,6.00
2022-12-25T10:28:01.364Z,5.68
2022-12-25T10:30:28.818Z,5.20
2022-12-25T10:32:57.533Z,4.95
2022-12-25T10:35:27.338Z,5.20
2022-12-25T10:37:59.840Z,4.55
2022-12-25T10:40:59.915Z,5.13
2022-12-25T10:43:51.846Z,5.25
2022-12-25T10:46:20.752Z,5.15
2022-12-25T10:48:59.348Z,4.95
2022-12-25T10:51:37.719Z,5.47
2022-12-25T10:54:20.470Z,5.18
2022-12-25T10:57:03.942Z,5.40
2022-12-25T10:59:35.206Z,5.35
2022-12-25T11:02:28.223Z,5.15
2022-12-25T11:05:04.809Z,5.32
2022-12-25T11:07:33.150Z,5.90
2022-12-25T11:10:16.113Z,5.63
2022-12-25T11:12:44.680Z,5.93
2022-12-25T11:15:39.315Z,6.07
2022-12-25T11:18:24.046Z,6.05
2022-12-25T11:20:52.632Z,5.93
2022-12-25T11:23:21.222Z,5.43
2022-12-25T11:26:05.451Z,6.28
2022-12-25T11:31:05.483Z,6.07
2022-12-25T11:33:37.275Z,6.18
2022-12-25T11:36:15.407Z,6.53
2022-12-25T11:38:41.786Z,6.80
2022-12-25T11:41:10.860Z,6.70
2022-12-25T11:43:47.122Z,6.90
2022-12-25T11:46:26.694Z,6.28
2022-12-25T11:48:58.247Z,7.00
2022-12-25T11:51:28.906Z,6.70
2022-12-25T11:54:02.344Z,7.13
2022-12-25T11:56:30.753Z,6.65
2022-12-25T11:59:03.608Z,6.65
2022-12-25T12:01:52.880Z,7.20
2022-12-25T12:04:31.053Z,6.47
2022-12-25T12:07:20.993Z,6.03
2022-12-25T12:10:21.413Z,6.47
2022-12-25T12:13:24.651Z,6.60
2022-12-25T12:15:51.433Z,6.32
2022-12-25T12:18:31.650Z,6.40
2022-12-25T12:21:02.438Z,6.10
2022-12-25T12:23:31.587Z,5.53
2022-12-25T12:25:58.338Z,6.25
2022-12-25T12:28:27.877Z,6.63
2022-12-25T12:31:13.132Z,6.22
2022-12-25T12:33:59.611Z,6.13
2022-12-25T12:36:35.571Z,5.68
2022-12-25T12:39:04.157Z,6.32
2022-12-25T12:41:48.464Z,6.20
2022-12-25T12:44:17.382Z,6.10
2022-12-25T12:46:57.447Z,6.38
2022-12-25T12:49:26.639Z,6.65
2022-12-25T12:52:22.320Z,5.88
2022-12-25T12:54:56.469Z,6.43
2022-12-25T12:57:26.679Z,6.32
2022-12-25T12:59:53.086Z,6.03
2022-12-25T13:02:38.080Z,6.10
2022-12-25T13:05:37.107Z,5.80
2022-12-25T13:08:21.757Z,5.57
2022-12-25T13:10:50.588Z,6.10
2022-12-25T13:13:22.099Z,6.03
2022-12-25T13:15:50.810Z,5.80
2022-12-25T13:18:17.658Z,6.28
2022-12-25T13:20:59.925Z,6.80
2022-12-25T13:23:29.216Z,6.25
2022-12-25T13:26:01.027Z,6.90
2022-12-25T13:28:35.309Z,6.25
2022-12-25T13:31:13.975Z,6.80
2022-12-25T13:33:45.218Z,6.80
2022-12-25T13:36:13.774Z,6.35
2022-12-25T13:38:48.915Z,6.95
2022-12-25T13:41:20.614Z,6.97
2022-12-25T13:43:48.613Z,7.13
2022-12-25T13:46:15.533Z,7.10
2022-12-25T13:48:42.802Z,7.60
2022-12-25T13:51:14.435Z,6.70
2022-12-25T13:53:40.814Z,6.88
2022-12-25T13:56:14.391Z,7.28
2022-12-25T13:58:40.908Z,7.10
2022-12-25T14:01:08.545Z,7.32
2022-12-25T14:03:43.735Z,8.05
2022-12-25T14:06:31.905Z,8.02
2022-12-25T14:08:59.486Z,7.63
2022-12-25T14:11:28.520Z,7.55
2022-12-25T14:13:59.970Z,8.00
2022-12-25T14:16:27.218Z,8.65
2022-12-25T14:19:01.287Z,8.95
2022-12-25T14:21:35.256Z,8.73
2022-12-25T14:24:02.112Z,8.57
2022-12-25T14:26:31.549Z,8.63
2022-12-25T14:29:16.589Z,8.23
2022-12-25T14:31:45.218Z,8.55
2022-12-25T14:34:23.246Z,8.68
2022-12-25T14:36:51.836Z,8.80
2022-12-25T14:39:28.037Z,8.18
2022-12-25T14:41:54.739Z,9.07
2022-12-25T14:44:33.677Z,8.27
2022-12-25T14:47:26.186Z,8.73
2022-12-25T14:49:52.590Z,8.77
2022-12-25T14:52:21.655Z,9.32
2022-12-25T14:54:52.989Z,9.27
2022-12-25T14:57:28.016Z,8.80
2022-12-25T14:59:56.902Z,8.80
2022-12-25T15:02:23.853Z,8.75
2022-12-25T15:04:50.287Z,9.68
2022-12-25T15:07:30.792Z,8.77
2022-12-25T15:10:27.097Z,9.50
2022-12-25T15:12:44.033Z,9.07
2022-12-25T15:15:10.594Z,9.05
2022-12-25T15:17:36.941Z,9.30
2022-12-25T15:20:03.732Z,8.75
2022-12-25T15:22:47.742Z,8.73
2022-12-25T15:25:16.517Z,8.50
2022-12-25T15:27:43.103Z,8.43
2022-12-25T15:30:11.003Z,9.50
2022-12-25T15:32:37.935Z,8.65
2022-12-25T15:35:05.313Z,9.07
2022-12-25T15:37:31.955Z,9.23
2022-12-25T15:39:58.352Z,9.30
2022-12-25T15:42:25.339Z,9.38
2022-12-25T15:44:52.005Z,10.18
2022-12-25T15:47:19.251Z,9.60
2022-12-25T15:49:45.847Z,10.15
2022-12-25T15:52:15.653Z,10.30
2022-12-25T15:54:42.084Z,10.13
2022-12-25T15:57:17.831Z,10.02
2022-12-25T15:59:44.196Z,10.30
2022-12-25T16:02:19.920Z,9.88
2022-12-25T16:04:46.476Z,9.77
2022-12-25T16:07:17.987Z,10.18
2022-12-25T16:09:45.108Z,9.93
2022-12-25T16:12:11.711Z,10.02
2022-12-25T16:14:38.157Z,9.88
2022-12-25T16:17:05.167Z,10.30
2022-12-25T16:19:31.743Z,8.60
2022-12-25T16:21:58.360Z,9.38
2022-12-25T16:24:24.741Z,11.43
2022-12-25T16:26:51.118Z,10.52
2022-12-25T16:29:17.573Z,10.27
2022-12-25T16:31:44.253Z,10.65
2022-12-25T16:34:10.692Z,11.10
2022-12-25T16:36:37.240Z,12.95
2022-12-25T16:39:04.713Z,12.40
2022-12-25T16:41:31.401Z,13.45
2022-12-25T16:43:57.865Z,10.80
2022-12-25T16:46:24.533Z,12.32
2022-12-25T16:48:50.890Z,8.75
2022-12-25T16:51:19.739Z,16.10
2022-12-25T16:53:46.197Z,8.88
2022-12-25T16:56:15.268Z,15.32
2022-12-25T16:58:43.549Z,11.07
2022-12-25T17:01:11.925Z,7.65
2022-12-25T17:03:38.894Z,8.32
2022-12-25T17:06:25.552Z,7.07
2022-12-25T17:08:55.192Z,12.77
2022-12-25T17:11:21.588Z,21.83
2022-12-25T17:13:48.604Z,24.48
2022-12-25T17:16:17.518Z,25.13
2022-12-25T17:18:44.376Z,16.98
2022-12-25T17:21:11.210Z,8.68
2022-12-25T17:23:38.416Z,9.00
2022-12-25T17:26:05.786Z,10.50
2022-12-25T17:28:34.078Z,7.75
2022-12-25T17:31:05.463Z,9.73
2022-12-25T17:33:32.424Z,18.58
2022-12-25T17:36:04.230Z,13.48
2022-12-25T17:38:32.261Z,7.85
2022-12-25T17:40:59.683Z,7.97
2022-12-25T17:43:26.590Z,6.70
2022-12-25T17:45:53.053Z,11.20
2022-12-25T17:48:22.168Z,9.45
2022-12-25T17:50:49.101Z,15.15
2022-12-25T17:53:15.473Z,9.55
2022-12-25T17:55:41.975Z,15.00
2022-12-25T17:58:08.929Z,14.55
2022-12-25T18:00:36.351Z,13.68
2022-12-25T18:03:09.095Z,15.15
2022-12-25T18:05:37.843Z,15.65
2022-12-25T18:08:04.427Z,16.23
2022-12-25T18:10:39.152Z,20.30
2022-12-25T18:13:05.589Z,12.63
2022-12-25T18:15:32.156Z,11.85
2022-12-25T18:17:58.497Z,18.65
2022-12-25T18:20:24.848Z,10.55
2022-12-25T18:22:51.213Z,15.68
2022-12-25T18:25:17.590Z,14.90
2022-12-25T18:27:43.950Z,19.45
2022-12-25T18:30:10.640Z,18.92
2022-12-25T18:32:37.082Z,11.40
2022-12-25T18:35:04.933Z,14.05
2022-12-25T18:37:34.450Z,10.02
2022-12-25T18:40:06.690Z,19.80
2022-12-25T18:42:33.069Z,13.13
2022-12-25T18:44:59.612Z,9.93
2022-12-25T18:47:26.328Z,10.63
2022-12-25T18:49:52.803Z,14.00
2022-12-25T18:52:49.816Z,13.55
2022-12-25T18:55:06.974Z,14.60
2022-12-25T18:57:33.456Z,10.05
2022-12-25T19:00:00.368Z,15.68
2022-12-25T19:02:27.469Z,13.40
2022-12-25T19:04:54.953Z,9.73
2022-12-25T19:07:22.312Z,8.73
2022-12-25T19:09:49.617Z,8.90
2022-12-25T19:12:16.403Z,12.27
2022-12-25T19:14:47.751Z,15.32
2022-12-25T19:17:14.574Z,20.90
2022-12-25T19:19:41.001Z,19.63
2022-12-25T19:22:07.882Z,17.85
2022-12-25T19:24:35.680Z,16.10
2022-12-25T19:27:02.501Z,12.27
2022-12-25T19:29:29.414Z,9.85
2022-12-25T19:31:56.304Z,21.35
2022-12-25T19:34:23.105Z,21.77
2022-12-25T19:36:49.424Z,22.13
2022-12-25T19:39:16.051Z,14.27
2022-12-25T19:41:42.432Z,13.80
2022-12-25T19:44:08.857Z,12.27
2022-12-25T19:46:38.340Z,20.13
2022-12-25T19:49:05.242Z,16.65
2022-12-25T19:51:36.991Z,12.50
2022-12-25T19:54:04.782Z,17.73
2022-12-25T19:56:32.303Z,12.82
2022-12-25T19:58:59.195Z,14.65
2022-12-25T20:01:27.777Z,11.23
2022-12-25T20:03:54.793Z,11.80
2022-12-25T20:06:24.221Z,9.77
2022-12-25T20:08:53.202Z,10.35
2022-12-25T20:11:21.118Z,10.68
2022-12-25T20:13:50.723Z,11.77
2022-12-25T20:16:17.403Z,12.48
2022-12-25T20:18:43.897Z,10.50
2022-12-25T20:21:16.394Z,12.10
2022-12-25T20:23:44.282Z,24.58
2022-12-25T20:26:12.878Z,22.08
2022-12-25T20:28:40.641Z,24.83
2022-12-25T20:31:08.600Z,23.92
2022-12-25T20:33:36.107Z,23.00
2022-12-25T20:36:03.988Z,21.73
2022-12-25T20:38:30.779Z,15.55
2022-12-25T20:41:26.324Z,20.67
2022-12-25T20:46:14.479Z,16.30
2022-12-25T20:48:40.914Z,19.05
2022-12-25T20:51:18.919Z,19.23
2022-12-25T20:53:45.717Z,18.17
2022-12-25T20:56:14.216Z,16.40
2022-12-25T20:58:41.041Z,12.70
2022-12-25T21:01:09.425Z,14.18
2022-12-25T21:03:35.928Z,18.13
2022-12-25T21:06:02.982Z,12.25
2022-12-25T21:08:30.072Z,13.00
2022-12-25T21:10:58.715Z,13.02
2022-12-25T21:13:25.197Z,13.90
2022-12-25T21:15:52.413Z,15.60
2022-12-25T21:18:20.924Z,13.48
2022-12-25T21:20:50.350Z,13.15
2022-12-25T21:23:17.457Z,11.75
2022-12-25T21:25:44.684Z,12.10
2022-12-25T21:28:11.208Z,13.18
2022-12-25T21:30:37.882Z,16.00
2022-12-25T21:33:05.248Z,14.60
2022-12-25T21:35:31.653Z,11.35
2022-12-25T21:37:58.085Z,11.00
2022-12-25T21:40:24.618Z,20.20
2022-12-25T21:42:52.074Z,16.98
2022-12-25T21:45:18.496Z,13.27
2022-12-25T21:48:01.955Z,12.85
2022-12-25T21:50:32.425Z,12.50
2022-12-25T21:53:01.070Z,14.57
2022-12-25T21:55:27.452Z,19.33
2022-12-25T21:57:54.135Z,19.55
2022-12-25T22:00:20.734Z,18.15
2022-12-25T22:02:50.225Z,19.02
2022-12-25T22:05:16.634Z,19.90
2022-12-25T22:07:43.041Z,19.67
2022-12-25T22:10:09.426Z,18.80
2022-12-25T22:12:35.880Z,17.02
2022-12-25T22:15:04.549Z,18.08
2022-12-25T22:17:33.368Z,19.27
2022-12-25T22:19:59.779Z,20.77
2022-12-25T22:22:29.615Z,21.00
2022-12-25T22:25:01.358Z,19.23
2022-12-25T22:27:36.678Z,19.45
2022-12-25T22:30:05.237Z,20.27
2022-12-25T22:32:31.655Z,18.95
2022-12-25T22:34:58.084Z,18.05
2022-12-25T22:37:24.470Z,15.82
2022-12-25T22:39:50.923Z,16.90
2022-12-25T22:42:17.635Z,15.30
2022-12-25T22:44:44.065Z,13.48
2022-12-25T22:47:10.492Z,12.13
2022-12-25T22:49:37.174Z,11.63
2022-12-25T22:52:03.921Z,11.90
2022-12-25T22:54:31.454Z,12.20
2022-12-25T22:56:58.254Z,10.70
2022-12-25T22:59:25.261Z,11.27
2022-12-25T23:01:51.772Z,9.63
2022-12-25T23:04:18.331Z,10.45
2022-12-25T23:06:44.917Z,9.85
2022-12-25T23:09:18.857Z,10.20
2022-12-25T23:11:48.641Z,11.15
2022-12-25T23:14:15.069Z,11.85
2022-12-25T23:16:41.522Z,9.23
2022-12-25T23:19:10.903Z,9.95
2022-12-25T23:21:38.162Z,10.35
2022-12-25T23:24:04.932Z,8.95
2022-12-25T23:26:31.357Z,9.32
2022-12-25T23:28:57.791Z,8.52
2022-12-25T23:31:30.643Z,9.80
2022-12-25T23:33:57.783Z,9.15
2022-12-25T23:36:24.219Z,9.98
2022-12-25T23:38:50.552Z,10.27
2022-12-25T23:41:16.976Z,10.40
2022-12-25T23:43:43.329Z,11.13
2022-12-25T23:46:09.747Z,9.27
2022-12-25T23:48:36.178Z,8.90
2022-12-25T23:51:06.643Z,10.43
2022-12-25T23:53:34.399Z,9.25
2022-12-25T23:56:01.452Z,9.82
2022-12-25T23:58:29.065Z,8.93
